createdAt,value
2023-04-10T00:00:39.427Z,42.70
2023-04-10T00:03:20.872Z,42.60
2023-04-10T00:05:49.514Z,43.40
2023-04-10T00:08:17.961Z,44.30
2023-04-10T00:10:46.361Z,43.40
2023-04-10T00:13:16.246Z,45.20
2023-04-10T00:15:44.733Z,42.80
2023-04-10T00:18:13.120Z,40.20
2023-04-10T00:20:41.880Z,41.90
2023-04-10T00:23:10.321Z,40.20
2023-04-10T00:25:38.869Z,41.00
2023-04-10T00:28:07.218Z,40.60
2023-04-10T00:30:35.606Z,38.10
2023-04-10T00:33:04.226Z,39.00
2023-04-10T00:35:33.388Z,36.70
2023-04-10T00:38:01.800Z,39.60
2023-04-10T00:40:30.498Z,34.80
2023-04-10T00:42:58.962Z,35.40
2023-04-10T00:45:27.674Z,36.00
2023-04-10T00:47:56.732Z,34.50
2023-04-10T00:50:25.150Z,31.40
2023-04-10T00:52:53.531Z,28.80
2023-04-10T00:55:21.983Z,27.50
2023-04-10T00:57:50.663Z,27.40
2023-04-10T01:00:19.606Z,28.80
2023-04-10T01:02:48.170Z,29.00
2023-04-10T01:05:16.943Z,25.40
2023-04-10T01:07:57.126Z,26.00
2023-04-10T01:10:51.906Z,26.00
2023-04-10T01:13:35.028Z,27.80
2023-04-10T01:16:35.961Z,35.10
2023-04-10T01:19:30.970Z,32.40
2023-04-10T01:22:02.639Z,32.60
2023-04-10T01:25:36.172Z,32.60
2023-04-10T01:28:19.852Z,37.20
2023-04-10T01:30:51.213Z,37.50
2023-04-10T01:33:26.639Z,36.70
2023-04-10T01:38:28.650Z,39.10
2023-04-10T01:40:59.741Z,38.70
2023-04-10T01:43:31.435Z,37.90
2023-04-10T01:46:02.579Z,39.00
2023-04-10T01:48:31.007Z,38.50
2023-04-10T01:51:03.944Z,40.10
2023-04-10T01:53:32.724Z,38.80
2023-04-10T01:56:02.917Z,39.80
2023-04-10T01:58:31.393Z,41.30
2023-04-10T02:00:59.807Z,38.10
2023-04-10T02:03:28.453Z,40.90
2023-04-10T02:06:37.855Z,34.80
2023-04-10T02:09:19.042Z,31.70
2023-04-10T02:12:04.792Z,32.10
2023-04-10T02:17:06.677Z,29.20
2023-04-10T02:19:37.234Z,28.10
2023-04-10T02:22:06.173Z,30.00
2023-04-10T02:24:35.460Z,31.40
2023-04-10T02:27:04.095Z,29.30
2023-04-10T02:29:32.481Z,32.90
2023-04-10T02:32:01.101Z,33.80
2023-04-10T02:34:29.510Z,31.70
2023-04-10T02:36:57.858Z,34.20
2023-04-10T02:39:26.568Z,33.20
2023-04-10T02:41:54.884Z,33.00
2023-04-10T02:44:23.182Z,31.80
2023-04-10T02:46:51.570Z,32.90
2023-04-10T02:49:19.914Z,34.40
2023-04-10T02:51:48.249Z,34.70
2023-04-10T02:54:16.617Z,37.30
2023-04-10T02:56:45.007Z,34.90
2023-04-10T02:59:13.505Z,34.80
2023-04-10T03:01:42.244Z,32.10
2023-04-10T03:04:10.716Z,34.70
2023-04-10T03:06:39.395Z,33.70
2023-04-10T03:09:07.842Z,30.50
2023-04-10T03:11:36.174Z,31.60
2023-04-10T03:14:05.166Z,31.40
2023-04-10T03:16:33.626Z,33.00
2023-04-10T03:19:02.035Z,32.20
2023-04-10T03:21:30.426Z,34.00
2023-04-10T03:23:58.734Z,32.70
2023-04-10T03:26:27.885Z,32.60
2023-04-10T03:28:56.248Z,30.60
2023-04-10T03:31:24.778Z,32.80
2023-04-10T03:33:53.555Z,33.40
2023-04-10T03:36:22.224Z,35.80
2023-04-10T03:38:52.772Z,33.90
2023-04-10T03:41:22.638Z,35.50
2023-04-10T03:43:52.827Z,35.70
2023-04-10T03:46:22.778Z,32.20
2023-04-10T03:48:52.858Z,31.20
2023-04-10T03:51:21.388Z,33.10
2023-04-10T03:53:49.741Z,32.30
2023-04-10T03:56:18.310Z,33.40
2023-04-10T03:58:46.763Z,32.40
2023-04-10T04:01:15.442Z,31.30
2023-04-10T04:03:44.160Z,33.60
2023-04-10T04:06:12.892Z,32.80
2023-04-10T04:08:41.350Z,35.80
2023-04-10T04:11:09.745Z,34.60
2023-04-10T04:13:38.101Z,33.10
2023-04-10T04:16:07.524Z,35.10
2023-04-10T04:18:36.126Z,35.00
2023-04-10T04:21:04.919Z,34.20
2023-04-10T04:23:33.232Z,33.40
2023-04-10T04:26:01.638Z,37.60
2023-04-10T04:28:30.488Z,33.80
2023-04-10T04:30:58.986Z,34.40
2023-04-10T04:33:27.320Z,33.80
2023-04-10T04:35:57.456Z,32.20
2023-04-10T04:38:25.856Z,32.80
2023-04-10T04:40:54.160Z,32.80
2023-04-10T04:43:22.524Z,29.10
2023-04-10T04:45:51.124Z,26.60
2023-04-10T04:48:19.563Z,26.90
2023-04-10T04:50:47.886Z,25.90
2023-04-10T04:53:16.246Z,27.30
2023-04-10T04:55:44.630Z,25.60
2023-04-10T04:58:12.985Z,26.90
2023-04-10T05:00:41.317Z,26.10
2023-04-10T05:03:10.044Z,26.80
2023-04-10T05:05:38.585Z,27.00
2023-04-10T05:08:07.072Z,27.10
2023-04-10T05:10:35.470Z,26.10
2023-04-10T05:13:03.780Z,24.80
2023-04-10T05:15:32.352Z,28.90
2023-04-10T05:18:01.185Z,25.90
2023-04-10T05:20:29.593Z,29.00
2023-04-10T05:22:58.286Z,28.00
2023-04-10T05:25:26.616Z,27.00
2023-04-10T05:27:55.023Z,28.90
2023-04-10T05:30:23.369Z,27.90
2023-04-10T05:32:51.747Z,28.90
2023-04-10T05:35:20.300Z,27.70
2023-04-10T05:37:48.681Z,27.80
2023-04-10T05:40:17.230Z,27.90
2023-04-10T05:42:45.573Z,28.10
2023-04-10T05:45:15.040Z,28.40
2023-04-10T05:47:43.665Z,30.40
2023-04-10T05:50:12.080Z,29.20
2023-04-10T05:52:40.520Z,30.40
2023-04-10T05:55:09.613Z,30.20
2023-04-10T05:57:39.687Z,29.10
2023-04-10T06:00:09.253Z,31.20
2023-04-10T06:02:37.841Z,30.00
2023-04-10T06:05:06.679Z,31.60
2023-04-10T06:07:35.288Z,32.60
2023-04-10T06:10:04.122Z,31.30
2023-04-10T06:12:32.688Z,30.80
2023-04-10T06:15:00.993Z,30.20
2023-04-10T06:17:29.913Z,29.80
2023-04-10T06:20:01.045Z,30.10
2023-04-10T06:22:29.485Z,26.90
2023-04-10T06:24:58.024Z,29.60
2023-04-10T06:27:28.128Z,30.50
2023-04-10T06:29:56.756Z,27.70
2023-04-10T06:32:25.575Z,31.10
2023-04-10T06:34:54.029Z,28.00
2023-04-10T06:37:33.705Z,29.10
2023-04-10T06:40:11.251Z,29.60
2023-04-10T06:42:39.721Z,29.10
2023-04-10T06:45:09.019Z,43.30
2023-04-10T06:47:37.557Z,44.50
2023-04-10T06:50:06.347Z,28.80
2023-04-10T06:52:34.640Z,28.10
2023-04-10T06:55:03.045Z,29.20
2023-04-10T06:57:31.416Z,31.50
2023-04-10T06:59:59.750Z,31.00
2023-04-10T07:02:28.279Z,32.30
2023-04-10T07:04:57.044Z,31.00
2023-04-10T07:07:25.516Z,30.70
2023-04-10T07:09:53.873Z,29.30
2023-04-10T07:12:22.922Z,30.80
2023-04-10T07:14:51.422Z,31.70
2023-04-10T07:17:19.932Z,31.30
2023-04-10T07:19:48.286Z,37.20
2023-04-10T07:22:16.773Z,42.20
2023-04-10T07:24:45.415Z,42.10
2023-04-10T07:27:13.845Z,44.20
2023-04-10T07:29:42.224Z,40.00
2023-04-10T07:32:10.933Z,51.80
2023-04-10T07:34:39.473Z,37.20
2023-04-10T07:37:07.927Z,35.90
2023-04-10T07:39:36.824Z,37.50
2023-04-10T07:42:06.616Z,40.60
2023-04-10T07:44:34.948Z,42.40
2023-04-10T07:47:04.171Z,41.70
2023-04-10T07:49:32.627Z,49.30
2023-04-10T07:52:01.016Z,38.10
2023-04-10T07:54:34.102Z,43.90
2023-04-10T07:57:02.675Z,46.40
2023-04-10T07:59:31.194Z,48.30
2023-04-10T08:01:59.752Z,46.20
2023-04-10T08:04:28.514Z,43.40
2023-04-10T08:06:56.922Z,42.70
2023-04-10T08:09:25.400Z,41.70
2023-04-10T08:11:53.926Z,46.90
2023-04-10T08:14:22.317Z,48.00
2023-04-10T08:16:50.935Z,44.10
2023-04-10T08:19:19.421Z,47.40
2023-04-10T08:21:47.821Z,46.40
2023-04-10T08:24:19.796Z,46.30
2023-04-10T08:26:48.520Z,48.50
2023-04-10T08:29:16.904Z,49.50
2023-04-10T08:31:45.280Z,43.20
2023-04-10T08:34:13.691Z,41.00
2023-04-10T08:36:42.076Z,40.10
2023-04-10T08:39:10.568Z,40.80
2023-04-10T08:41:41.245Z,37.60
2023-04-10T08:44:11.518Z,39.70
2023-04-10T08:46:44.573Z,42.60
2023-04-10T08:49:24.377Z,44.80
2023-04-10T08:51:59.323Z,54.80
2023-04-10T08:54:38.794Z,47.80
2023-04-10T08:57:09.758Z,45.40
2023-04-10T08:59:39.350Z,45.40
2023-04-10T09:02:07.874Z,46.40
2023-04-10T09:04:36.699Z,43.50
2023-04-10T09:07:05.631Z,43.90
2023-04-10T09:09:34.341Z,44.70
2023-04-10T09:12:04.396Z,45.80
2023-04-10T09:14:37.651Z,42.60
2023-04-10T09:17:20.610Z,40.70
2023-04-10T09:19:54.521Z,42.90
2023-04-10T09:22:32.301Z,40.50
2023-04-10T09:25:03.134Z,41.40
2023-04-10T09:27:37.424Z,43.70
2023-04-10T09:30:08.470Z,41.60
2023-04-10T09:32:46.708Z,39.90
2023-04-10T09:35:16.742Z,40.20
2023-04-10T09:37:46.780Z,40.20
2023-04-10T09:40:26.692Z,36.20
2023-04-10T09:42:56.975Z,36.90
2023-04-10T09:45:25.627Z,38.40
2023-04-10T09:48:08.597Z,37.70
2023-04-10T09:50:40.732Z,35.40
2023-04-10T09:53:13.112Z,36.30
2023-04-10T09:55:43.031Z,36.40
2023-04-10T09:58:19.239Z,35.30
2023-04-10T10:00:49.857Z,36.90
2023-04-10T10:03:21.396Z,36.90
2023-04-10T10:06:05.148Z,34.20
2023-04-10T10:08:35.868Z,34.60
2023-04-10T10:11:11.540Z,34.20
2023-04-10T10:13:57.139Z,32.30
2023-04-10T10:16:54.156Z,32.70
2023-04-10T10:19:41.764Z,30.70
2023-04-10T10:22:11.773Z,30.00
2023-04-10T10:24:45.857Z,32.00
2023-04-10T10:27:16.228Z,32.00
2023-04-10T10:29:49.118Z,32.80
2023-04-10T10:32:18.740Z,32.50
2023-04-10T10:34:48.310Z,32.60
2023-04-10T10:37:17.326Z,30.50
2023-04-10T10:40:06.820Z,30.00
2023-04-10T10:42:57.764Z,29.90
2023-04-10T10:45:36.388Z,31.10
2023-04-10T10:48:05.022Z,29.50
2023-04-10T10:50:58.243Z,30.50
2023-04-10T10:53:45.313Z,29.80
2023-04-10T10:56:19.536Z,30.90
2023-04-10T10:58:58.695Z,35.30
2023-04-10T11:01:32.700Z,31.60
2023-04-10T11:04:12.591Z,32.10
2023-04-10T11:06:52.307Z,31.00
2023-04-10T11:09:48.671Z,31.10
2023-04-10T11:12:24.963Z,32.00
2023-04-10T11:15:01.534Z,32.80
2023-04-10T11:17:48.804Z,36.70
2023-04-10T11:20:22.304Z,33.80
2023-04-10T11:23:13.187Z,32.50
2023-04-10T11:25:52.973Z,32.30
2023-04-10T11:28:35.659Z,29.50
2023-04-10T11:31:22.467Z,31.00
2023-04-10T11:34:03.380Z,30.60
2023-04-10T11:36:33.530Z,29.60
2023-04-10T11:39:09.148Z,29.30
2023-04-10T11:41:44.232Z,26.10
2023-04-10T11:44:20.993Z,26.90
2023-04-10T11:46:51.287Z,28.00
2023-04-10T11:49:25.612Z,27.90
2023-04-10T11:51:54.836Z,26.50
2023-04-10T11:54:26.301Z,27.10
2023-04-10T11:57:09.545Z,27.50
2023-04-10T11:59:37.893Z,28.40
2023-04-10T12:02:15.259Z,26.60
2023-04-10T12:04:44.761Z,27.60
2023-04-10T12:07:13.282Z,27.80
2023-04-10T12:09:42.795Z,26.10
2023-04-10T12:12:11.215Z,25.90
2023-04-10T12:14:42.612Z,25.60
2023-04-10T12:17:12.963Z,25.20
